sensor_id;sensor_type;location;lat;lon;timestamp;P1;durP1;ratioP1;P2;durP2;ratioP2
13685;SDS011;6915;48.296;8.874;2023-01-29T00:00:09;17.00;;;13.13;;
13685;SDS011;6915;48.296;8.874;2023-01-29T00:02:39;17.67;;;13.20;;
13685;SDS011;6915;48.296;8.874;2023-01-29T00:05:08;18.23;;;13.97;;
13685;SDS011;6915;48.296;8.874;2023-01-29T00:07:37;18.53;;;14.53;;
13685;SDS011;6915;48.296;8.874;2023-01-29T00:10:06;20.47;;;15.23;;
13685;SDS011;6915;48.296;8.874;2023-01-29T00:12:37;19.47;;;13.90;;
13685;SDS011;6915;48.296;8.874;2023-01-29T00:15:08;18.00;;;14.10;;
13685;SDS011;6915;48.296;8.874;2023-01-29T00:17:36;16.97;;;13.60;;
13685;SDS011;6915;48.296;8.874;2023-01-29T00:20:05;20.17;;;14.20;;
13685;SDS011;6915;48.296;8.874;2023-01-29T00:22:35;17.57;;;12.73;;
13685;SDS011;6915;48.296;8.874;2023-01-29T00:25:04;18.07;;;13.87;;
13685;SDS011;6915;48.296;8.874;2023-01-29T00:27:32;19.03;;;14.67;;
13685;SDS011;6915;48.296;8.874;2023-01-29T00:30:01;22.17;;;15.50;;
13685;SDS011;6915;48.296;8.874;2023-01-29T00:32:39;21.03;;;15.27;;
13685;SDS011;6915;48.296;8.874;2023-01-29T00:35:08;19.57;;;14.57;;
13685;SDS011;6915;48.296;8.874;2023-01-29T00:37:37;19.87;;;14.37;;
13685;SDS011;6915;48.296;8.874;2023-01-29T00:40:06;17.53;;;13.70;;
13685;SDS011;6915;48.296;8.874;2023-01-29T00:42:34;21.73;;;14.73;;
13685;SDS011;6915;48.296;8.874;2023-01-29T00:45:27;18.73;;;13.73;;
13685;SDS011;6915;48.296;8.874;2023-01-29T00:47:57;19.67;;;14.27;;
13685;SDS011;6915;48.296;8.874;2023-01-29T00:50:26;20.13;;;14.43;;
13685;SDS011;6915;48.296;8.874;2023-01-29T00:52:55;18.90;;;14.20;;
13685;SDS011;6915;48.296;8.874;2023-01-29T00:55:24;20.30;;;13.83;;
13685;SDS011;6915;48.296;8.874;2023-01-29T00:57:53;18.90;;;14.13;;
13685;SDS011;6915;48.296;8.874;2023-01-29T01:00:21;20.43;;;14.67;;
13685;SDS011;6915;48.296;8.874;2023-01-29T01:02:50;21.43;;;14.23;;
13685;SDS011;6915;48.296;8.874;2023-01-29T01:05:31;18.23;;;13.70;;
13685;SDS011;6915;48.296;8.874;2023-01-29T01:08:00;18.07;;;14.27;;
13685;SDS011;6915;48.296;8.874;2023-01-29T01:10:57;17.83;;;13.10;;
13685;SDS011;6915;48.296;8.874;2023-01-29T01:13:25;19.87;;;13.67;;
13685;SDS011;6915;48.296;8.874;2023-01-29T01:15:56;19.40;;;13.43;;
13685;SDS011;6915;48.296;8.874;2023-01-29T01:18:27;16.40;;;12.13;;
13685;SDS011;6915;48.296;8.874;2023-01-29T01:20:58;16.37;;;12.20;;
13685;SDS011;6915;48.296;8.874;2023-01-29T01:23:26;14.17;;;10.67;;
13685;SDS011;6915;48.296;8.874;2023-01-29T01:25:55;12.97;;;10.60;;
13685;SDS011;6915;48.296;8.874;2023-01-29T01:28:24;17.23;;;11.73;;
13685;SDS011;6915;48.296;8.874;2023-01-29T01:30:53;15.80;;;10.90;;
13685;SDS011;6915;48.296;8.874;2023-01-29T01:33:22;12.97;;;10.43;;
13685;SDS011;6915;48.296;8.874;2023-01-29T01:35:50;11.90;;;10.00;;
13685;SDS011;6915;48.296;8.874;2023-01-29T01:38:21;14.00;;;10.70;;
13685;SDS011;6915;48.296;8.874;2023-01-29T01:40:50;14.63;;;11.43;;
13685;SDS011;6915;48.296;8.874;2023-01-29T01:43:18;14.93;;;11.53;;
13685;SDS011;6915;48.296;8.874;2023-01-29T01:45:47;14.87;;;11.03;;
13685;SDS011;6915;48.296;8.874;2023-01-29T01:48:16;14.90;;;11.33;;
13685;SDS011;6915;48.296;8.874;2023-01-29T01:50:49;14.37;;;11.40;;
13685;SDS011;6915;48.296;8.874;2023-01-29T01:53:20;13.93;;;10.60;;
13685;SDS011;6915;48.296;8.874;2023-01-29T01:55:53;16.40;;;12.77;;
13685;SDS011;6915;48.296;8.874;2023-01-29T01:58:27;14.93;;;11.67;;
13685;SDS011;6915;48.296;8.874;2023-01-29T02:01:00;14.87;;;11.20;;
13685;SDS011;6915;48.296;8.874;2023-01-29T02:03:29;14.23;;;10.73;;
13685;SDS011;6915;48.296;8.874;2023-01-29T02:06:19;13.93;;;10.80;;
13685;SDS011;6915;48.296;8.874;2023-01-29T02:09:08;13.37;;;10.47;;
13685;SDS011;6915;48.296;8.874;2023-01-29T02:11:59;16.20;;;11.13;;
13685;SDS011;6915;48.296;8.874;2023-01-29T02:14:29;15.17;;;11.23;;
13685;SDS011;6915;48.296;8.874;2023-01-29T02:16:59;13.30;;;10.50;;
13685;SDS011;6915;48.296;8.874;2023-01-29T02:19:37;13.63;;;10.50;;
13685;SDS011;6915;48.296;8.874;2023-01-29T02:22:31;16.30;;;11.57;;
13685;SDS011;6915;48.296;8.874;2023-01-29T02:25:18;15.50;;;11.07;;
13685;SDS011;6915;48.296;8.874;2023-01-29T02:31:06;15.30;;;11.23;;
13685;SDS011;6915;48.296;8.874;2023-01-29T02:33:45;13.97;;;10.77;;
13685;SDS011;6915;48.296;8.874;2023-01-29T02:36:25;17.47;;;12.23;;
13685;SDS011;6915;48.296;8.874;2023-01-29T02:38:59;19.17;;;13.30;;
13685;SDS011;6915;48.296;8.874;2023-01-29T02:41:33;18.03;;;12.93;;
13685;SDS011;6915;48.296;8.874;2023-01-29T02:44:10;21.00;;;13.70;;
13685;SDS011;6915;48.296;8.874;2023-01-29T02:46:48;19.87;;;13.00;;
13685;SDS011;6915;48.296;8.874;2023-01-29T02:49:23;18.50;;;12.33;;
13685;SDS011;6915;48.296;8.874;2023-01-29T02:51:58;16.07;;;12.07;;
13685;SDS011;6915;48.296;8.874;2023-01-29T02:54:30;17.13;;;12.70;;
13685;SDS011;6915;48.296;8.874;2023-01-29T02:57:07;14.10;;;11.40;;
13685;SDS011;6915;48.296;8.874;2023-01-29T02:59:46;15.10;;;10.97;;
13685;SDS011;6915;48.296;8.874;2023-01-29T03:02:20;14.63;;;10.40;;
13685;SDS011;6915;48.296;8.874;2023-01-29T03:04:56;12.87;;;10.30;;
13685;SDS011;6915;48.296;8.874;2023-01-29T03:07:31;14.27;;;10.60;;
13685;SDS011;6915;48.296;8.874;2023-01-29T03:10:12;16.17;;;10.87;;
13685;SDS011;6915;48.296;8.874;2023-01-29T03:12:46;14.90;;;10.77;;
13685;SDS011;6915;48.296;8.874;2023-01-29T03:15:23;14.13;;;10.33;;
13685;SDS011;6915;48.296;8.874;2023-01-29T03:18:04;14.47;;;10.40;;
13685;SDS011;6915;48.296;8.874;2023-01-29T03:20:38;12.97;;;10.60;;
13685;SDS011;6915;48.296;8.874;2023-01-29T03:23:13;13.70;;;10.37;;
13685;SDS011;6915;48.296;8.874;2023-01-29T03:25:51;12.73;;;10.33;;
13685;SDS011;6915;48.296;8.874;2023-01-29T03:28:41;14.03;;;10.73;;
13685;SDS011;6915;48.296;8.874;2023-01-29T03:31:30;12.93;;;9.97;;
13685;SDS011;6915;48.296;8.874;2023-01-29T03:34:17;13.87;;;10.10;;
13685;SDS011;6915;48.296;8.874;2023-01-29T03:36:55;12.90;;;10.10;;
13685;SDS011;6915;48.296;8.874;2023-01-29T03:39:27;14.50;;;10.57;;
13685;SDS011;6915;48.296;8.874;2023-01-29T03:41:56;14.43;;;10.50;;
13685;SDS011;6915;48.296;8.874;2023-01-29T03:44:29;13.10;;;10.60;;
13685;SDS011;6915;48.296;8.874;2023-01-29T03:47:07;11.07;;;9.67;;
13685;SDS011;6915;48.296;8.874;2023-01-29T03:49:45;12.03;;;10.10;;
13685;SDS011;6915;48.296;8.874;2023-01-29T03:52:22;11.93;;;9.73;;
13685;SDS011;6915;48.296;8.874;2023-01-29T03:55:00;15.13;;;9.90;;
13685;SDS011;6915;48.296;8.874;2023-01-29T03:57:36;8.50;;;7.50;;
13685;SDS011;6915;48.296;8.874;2023-01-29T04:00:14;6.93;;;6.23;;
13685;SDS011;6915;48.296;8.874;2023-01-29T04:02:49;8.13;;;6.80;;
13685;SDS011;6915;48.296;8.874;2023-01-29T04:05:23;8.07;;;7.27;;
13685;SDS011;6915;48.296;8.874;2023-01-29T04:07:56;6.67;;;6.03;;
13685;SDS011;6915;48.296;8.874;2023-01-29T04:10:30;7.27;;;6.03;;
13685;SDS011;6915;48.296;8.874;2023-01-29T04:13:01;7.20;;;6.03;;
13685;SDS011;6915;48.296;8.874;2023-01-29T04:15:35;7.33;;;6.13;;
13685;SDS011;6915;48.296;8.874;2023-01-29T04:18:10;9.53;;;7.27;;
13685;SDS011;6915;48.296;8.874;2023-01-29T04:20:39;13.23;;;9.50;;
13685;SDS011;6915;48.296;8.874;2023-01-29T04:23:17;10.13;;;7.93;;
13685;SDS011;6915;48.296;8.874;2023-01-29T04:25:46;9.20;;;7.43;;
13685;SDS011;6915;48.296;8.874;2023-01-29T04:28:33;6.37;;;5.50;;
13685;SDS011;6915;48.296;8.874;2023-01-29T04:31:12;5.70;;;5.10;;
13685;SDS011;6915;48.296;8.874;2023-01-29T04:33:43;5.40;;;4.90;;
13685;SDS011;6915;48.296;8.874;2023-01-29T04:36:23;7.23;;;5.03;;
13685;SDS011;6915;48.296;8.874;2023-01-29T04:39:05;5.67;;;5.07;;
13685;SDS011;6915;48.296;8.874;2023-01-29T04:41:39;6.13;;;5.40;;
13685;SDS011;6915;48.296;8.874;2023-01-29T04:44:19;5.40;;;4.90;;
13685;SDS011;6915;48.296;8.874;2023-01-29T04:46:51;5.63;;;4.90;;
13685;SDS011;6915;48.296;8.874;2023-01-29T04:49:33;5.23;;;4.73;;
13685;SDS011;6915;48.296;8.874;2023-01-29T04:52:08;5.23;;;4.50;;
13685;SDS011;6915;48.296;8.874;2023-01-29T08:24:03;3.47;;;3.17;;
13685;SDS011;6915;48.296;8.874;2023-01-29T08:26:35;4.40;;;3.90;;
13685;SDS011;6915;48.296;8.874;2023-01-29T08:29:04;4.80;;;3.93;;
13685;SDS011;6915;48.296;8.874;2023-01-29T08:31:32;4.50;;;4.10;;
13685;SDS011;6915;48.296;8.874;2023-01-29T08:34:02;4.20;;;3.80;;
13685;SDS011;6915;48.296;8.874;2023-01-29T08:54:37;4.13;;;3.73;;
13685;SDS011;6915;48.296;8.874;2023-01-29T08:57:06;4.67;;;4.23;;
13685;SDS011;6915;48.296;8.874;2023-01-29T08:59:34;4.30;;;3.90;;
13685;SDS011;6915;48.296;8.874;2023-01-29T09:02:03;5.60;;;4.63;;
13685;SDS011;6915;48.296;8.874;2023-01-29T09:04:32;6.20;;;5.13;;
13685;SDS011;6915;48.296;8.874;2023-01-29T09:07:01;5.77;;;4.70;;
13685;SDS011;6915;48.296;8.874;2023-01-29T09:09:29;3.60;;;3.30;;
13685;SDS011;6915;48.296;8.874;2023-01-29T09:12:00;3.90;;;3.60;;
13685;SDS011;6915;48.296;8.874;2023-01-29T09:14:29;4.00;;;3.60;;
13685;SDS011;6915;48.296;8.874;2023-01-29T09:16:58;5.00;;;4.60;;
13685;SDS011;6915;48.296;8.874;2023-01-29T09:19:26;3.93;;;3.50;;
13685;SDS011;6915;48.296;8.874;2023-01-29T09:21:55;4.03;;;3.70;;
13685;SDS011;6915;48.296;8.874;2023-01-29T09:24:30;4.10;;;3.70;;
13685;SDS011;6915;48.296;8.874;2023-01-29T09:27:00;4.10;;;3.80;;
13685;SDS011;6915;48.296;8.874;2023-01-29T09:29:31;5.63;;;4.13;;
13685;SDS011;6915;48.296;8.874;2023-01-29T09:32:00;4.47;;;4.07;;
13685;SDS011;6915;48.296;8.874;2023-01-29T09:34:31;4.83;;;4.43;;
13685;SDS011;6915;48.296;8.874;2023-01-29T09:36:59;7.27;;;4.73;;
13685;SDS011;6915;48.296;8.874;2023-01-29T09:39:30;4.50;;;4.10;;
13685;SDS011;6915;48.296;8.874;2023-01-29T09:42:01;4.03;;;3.70;;
13685;SDS011;6915;48.296;8.874;2023-01-29T09:44:39;4.20;;;3.80;;
13685;SDS011;6915;48.296;8.874;2023-01-29T09:47:18;4.23;;;3.83;;
13685;SDS011;6915;48.296;8.874;2023-01-29T09:49:50;4.20;;;3.80;;
13685;SDS011;6915;48.296;8.874;2023-01-29T09:52:23;5.10;;;4.33;;
13685;SDS011;6915;48.296;8.874;2023-01-29T09:54:56;4.20;;;3.80;;
13685;SDS011;6915;48.296;8.874;2023-01-29T09:57:32;4.50;;;4.10;;
13685;SDS011;6915;48.296;8.874;2023-01-29T10:00:08;4.70;;;4.30;;
13685;SDS011;6915;48.296;8.874;2023-01-29T10:02:54;4.40;;;4.00;;
13685;SDS011;6915;48.296;8.874;2023-01-29T10:05:36;4.80;;;4.30;;
13685;SDS011;6915;48.296;8.874;2023-01-29T10:18:52;3.97;;;3.57;;
13685;SDS011;6915;48.296;8.874;2023-01-29T10:22:03;3.57;;;3.27;;
13685;SDS011;6915;48.296;8.874;2023-01-29T13:21:18;6.10;;;5.50;;
13685;SDS011;6915;48.296;8.874;2023-01-29T13:23:50;5.80;;;5.27;;
13685;SDS011;6915;48.296;8.874;2023-01-29T13:26:21;9.03;;;6.50;;
13685;SDS011;6915;48.296;8.874;2023-01-29T13:28:52;6.60;;;5.73;;
13685;SDS011;6915;48.296;8.874;2023-01-29T13:31:30;10.90;;;7.93;;
13685;SDS011;6915;48.296;8.874;2023-01-29T13:34:10;7.00;;;6.30;;
13685;SDS011;6915;48.296;8.874;2023-01-29T13:36:42;8.13;;;6.87;;
13685;SDS011;6915;48.296;8.874;2023-01-29T13:39:17;7.10;;;6.33;;
13685;SDS011;6915;48.296;8.874;2023-01-29T13:41:48;9.03;;;6.00;;
13685;SDS011;6915;48.296;8.874;2023-01-29T13:44:19;7.63;;;5.73;;
13685;SDS011;6915;48.296;8.874;2023-01-29T13:46:52;8.23;;;6.27;;
13685;SDS011;6915;48.296;8.874;2023-01-29T13:49:28;9.10;;;7.30;;
13685;SDS011;6915;48.296;8.874;2023-01-29T13:52:14;6.40;;;5.77;;
13685;SDS011;6915;48.296;8.874;2023-01-29T13:54:49;6.83;;;6.13;;
13685;SDS011;6915;48.296;8.874;2023-01-29T13:57:32;6.27;;;5.33;;
13685;SDS011;6915;48.296;8.874;2023-01-29T14:06:35;6.97;;;5.40;;
13685;SDS011;6915;48.296;8.874;2023-01-29T14:12:32;6.23;;;5.03;;
13685;SDS011;6915;48.296;8.874;2023-01-29T14:15:19;6.20;;;5.30;;
13685;SDS011;6915;48.296;8.874;2023-01-29T14:17:54;5.17;;;4.67;;
13685;SDS011;6915;48.296;8.874;2023-01-29T14:20:32;5.83;;;5.27;;
13685;SDS011;6915;48.296;8.874;2023-01-29T14:23:02;6.13;;;5.40;;
13685;SDS011;6915;48.296;8.874;2023-01-29T14:25:36;7.67;;;5.83;;
13685;SDS011;6915;48.296;8.874;2023-01-29T14:28:13;8.67;;;6.07;;
13685;SDS011;6915;48.296;8.874;2023-01-29T14:30:46;6.17;;;5.57;;
13685;SDS011;6915;48.296;8.874;2023-01-29T14:33:23;6.90;;;5.93;;
13685;SDS011;6915;48.296;8.874;2023-01-29T14:35:53;6.47;;;5.60;;
13685;SDS011;6915;48.296;8.874;2023-01-29T14:38:24;7.03;;;6.07;;
13685;SDS011;6915;48.296;8.874;2023-01-29T14:41:06;7.60;;;5.93;;
13685;SDS011;6915;48.296;8.874;2023-01-29T14:43:41;6.77;;;5.73;;
13685;SDS011;6915;48.296;8.874;2023-01-29T14:49:09;6.70;;;6.00;;
13685;SDS011;6915;48.296;8.874;2023-01-29T14:51:59;7.90;;;6.93;;
13685;SDS011;6915;48.296;8.874;2023-01-29T14:54:29;8.27;;;6.27;;
13685;SDS011;6915;48.296;8.874;2023-01-29T14:57:03;7.00;;;5.93;;
13685;SDS011;6915;48.296;8.874;2023-01-29T14:59:42;10.37;;;7.37;;
13685;SDS011;6915;48.296;8.874;2023-01-29T15:02:15;8.17;;;6.67;;
13685;SDS011;6915;48.296;8.874;2023-01-29T15:04:49;7.70;;;6.70;;
13685;SDS011;6915;48.296;8.874;2023-01-29T15:07:24;7.77;;;6.93;;
13685;SDS011;6915;48.296;8.874;2023-01-29T15:09:56;8.23;;;6.50;;
13685;SDS011;6915;48.296;8.874;2023-01-29T15:12:31;10.13;;;7.70;;
13685;SDS011;6915;48.296;8.874;2023-01-29T15:15:12;9.00;;;7.37;;
13685;SDS011;6915;48.296;8.874;2023-01-29T15:17:48;8.93;;;6.93;;
13685;SDS011;6915;48.296;8.874;2023-01-29T15:20:25;7.70;;;6.90;;
13685;SDS011;6915;48.296;8.874;2023-01-29T15:22:57;9.23;;;7.13;;
13685;SDS011;6915;48.296;8.874;2023-01-29T15:25:29;8.23;;;6.57;;
13685;SDS011;6915;48.296;8.874;2023-01-29T15:28:00;7.20;;;6.50;;
13685;SDS011;6915;48.296;8.874;2023-01-29T15:30:35;8.70;;;6.70;;
13685;SDS011;6915;48.296;8.874;2023-01-29T15:33:07;8.10;;;6.77;;
13685;SDS011;6915;48.296;8.874;2023-01-29T15:35:38;7.77;;;6.70;;
13685;SDS011;6915;48.296;8.874;2023-01-29T15:38:13;8.30;;;6.70;;
13685;SDS011;6915;48.296;8.874;2023-01-29T15:40:50;8.90;;;6.67;;
13685;SDS011;6915;48.296;8.874;2023-01-29T15:43:21;8.43;;;7.10;;
13685;SDS011;6915;48.296;8.874;2023-01-29T15:45:52;9.40;;;7.27;;
13685;SDS011;6915;48.296;8.874;2023-01-29T15:48:24;9.50;;;6.87;;
13685;SDS011;6915;48.296;8.874;2023-01-29T15:50:58;9.17;;;7.73;;
13685;SDS011;6915;48.296;8.874;2023-01-29T15:53:34;8.63;;;7.30;;
13685;SDS011;6915;48.296;8.874;2023-01-29T15:56:07;7.83;;;7.00;;
13685;SDS011;6915;48.296;8.874;2023-01-29T15:58:37;9.37;;;7.87;;
13685;SDS011;6915;48.296;8.874;2023-01-29T16:01:11;11.93;;;8.20;;
13685;SDS011;6915;48.296;8.874;2023-01-29T16:03:40;11.20;;;7.63;;
13685;SDS011;6915;48.296;8.874;2023-01-29T16:06:10;9.17;;;7.87;;
13685;SDS011;6915;48.296;8.874;2023-01-29T16:08:39;9.37;;;7.60;;
13685;SDS011;6915;48.296;8.874;2023-01-29T16:11:12;11.07;;;7.90;;
13685;SDS011;6915;48.296;8.874;2023-01-29T16:13:41;10.03;;;7.23;;
13685;SDS011;6915;48.296;8.874;2023-01-29T16:16:22;10.13;;;7.80;;
13685;SDS011;6915;48.296;8.874;2023-01-29T16:18:52;10.07;;;8.07;;
13685;SDS011;6915;48.296;8.874;2023-01-29T16:21:22;9.07;;;8.00;;
13685;SDS011;6915;48.296;8.874;2023-01-29T16:23:54;9.50;;;7.90;;
13685;SDS011;6915;48.296;8.874;2023-01-29T16:26:29;11.37;;;8.17;;
13685;SDS011;6915;48.296;8.874;2023-01-29T16:29:02;11.03;;;8.27;;
13685;SDS011;6915;48.296;8.874;2023-01-29T16:31:34;12.80;;;8.80;;
13685;SDS011;6915;48.296;8.874;2023-01-29T16:34:07;10.03;;;8.13;;
13685;SDS011;6915;48.296;8.874;2023-01-29T16:36:43;10.83;;;7.93;;
13685;SDS011;6915;48.296;8.874;2023-01-29T16:39:14;12.07;;;8.13;;
13685;SDS011;6915;48.296;8.874;2023-01-29T16:41:59;10.03;;;8.23;;
13685;SDS011;6915;48.296;8.874;2023-01-29T16:44:51;12.10;;;8.43;;
13685;SDS011;6915;48.296;8.874;2023-01-29T16:47:26;10.57;;;8.17;;
13685;SDS011;6915;48.296;8.874;2023-01-29T16:49:56;9.97;;;7.67;;
13685;SDS011;6915;48.296;8.874;2023-01-29T16:52:26;8.57;;;7.43;;
13685;SDS011;6915;48.296;8.874;2023-01-29T16:54:57;11.00;;;8.50;;
13685;SDS011;6915;48.296;8.874;2023-01-29T16:57:27;11.83;;;8.00;;
13685;SDS011;6915;48.296;8.874;2023-01-29T16:59:58;11.03;;;8.57;;
13685;SDS011;6915;48.296;8.874;2023-01-29T17:02:35;9.93;;;8.07;;
13685;SDS011;6915;48.296;8.874;2023-01-29T17:05:05;10.47;;;8.40;;
13685;SDS011;6915;48.296;8.874;2023-01-29T17:07:42;11.60;;;9.07;;
13685;SDS011;6915;48.296;8.874;2023-01-29T17:10:14;10.13;;;8.00;;
13685;SDS011;6915;48.296;8.874;2023-01-29T17:12:47;10.13;;;8.07;;
13685;SDS011;6915;48.296;8.874;2023-01-29T17:15:29;10.50;;;8.10;;
13685;SDS011;6915;48.296;8.874;2023-01-29T17:18:02;11.47;;;8.17;;
13685;SDS011;6915;48.296;8.874;2023-01-29T17:20:40;10.00;;;8.23;;
13685;SDS011;6915;48.296;8.874;2023-01-29T17:23:09;11.23;;;8.20;;
13685;SDS011;6915;48.296;8.874;2023-01-29T17:25:38;9.80;;;7.90;;
13685;SDS011;6915;48.296;8.874;2023-01-29T17:28:08;10.40;;;8.30;;
13685;SDS011;6915;48.296;8.874;2023-01-29T17:30:38;9.40;;;7.73;;
13685;SDS011;6915;48.296;8.874;2023-01-29T17:33:11;10.13;;;8.43;;
13685;SDS011;6915;48.296;8.874;2023-01-29T17:35:42;10.30;;;8.20;;
13685;SDS011;6915;48.296;8.874;2023-01-29T17:38:11;11.60;;;8.53;;
13685;SDS011;6915;48.296;8.874;2023-01-29T17:40:41;9.60;;;7.80;;
13685;SDS011;6915;48.296;8.874;2023-01-29T17:43:12;10.03;;;7.80;;
13685;SDS011;6915;48.296;8.874;2023-01-29T17:45:41;10.73;;;8.27;;
13685;SDS011;6915;48.296;8.874;2023-01-29T17:48:11;10.20;;;8.07;;
13685;SDS011;6915;48.296;8.874;2023-01-29T17:50:44;9.53;;;7.53;;
13685;SDS011;6915;48.296;8.874;2023-01-29T17:53:15;12.93;;;8.57;;
13685;SDS011;6915;48.296;8.874;2023-01-29T17:55:44;9.07;;;7.27;;
13685;SDS011;6915;48.296;8.874;2023-01-29T17:58:15;9.67;;;7.80;;
13685;SDS011;6915;48.296;8.874;2023-01-29T18:00:45;11.57;;;8.30;;
13685;SDS011;6915;48.296;8.874;2023-01-29T18:03:16;9.03;;;7.67;;
13685;SDS011;6915;48.296;8.874;2023-01-29T18:05:46;10.47;;;7.57;;
13685;SDS011;6915;48.296;8.874;2023-01-29T18:08:15;10.10;;;8.20;;
13685;SDS011;6915;48.296;8.874;2023-01-29T18:10:45;11.37;;;8.03;;
13685;SDS011;6915;48.296;8.874;2023-01-29T18:13:14;11.23;;;8.50;;
13685;SDS011;6915;48.296;8.874;2023-01-29T18:15:43;10.27;;;7.77;;
13685;SDS011;6915;48.296;8.874;2023-01-29T18:18:13;10.50;;;8.20;;
13685;SDS011;6915;48.296;8.874;2023-01-29T18:20:43;11.37;;;9.20;;
13685;SDS011;6915;48.296;8.874;2023-01-29T18:23:13;12.87;;;8.97;;
13685;SDS011;6915;48.296;8.874;2023-01-29T18:25:42;12.53;;;9.40;;
13685;SDS011;6915;48.296;8.874;2023-01-29T18:28:12;13.30;;;8.97;;
13685;SDS011;6915;48.296;8.874;2023-01-29T18:30:42;14.30;;;9.90;;
13685;SDS011;6915;48.296;8.874;2023-01-29T18:33:13;14.73;;;10.67;;
13685;SDS011;6915;48.296;8.874;2023-01-29T18:35:42;14.70;;;10.90;;
13685;SDS011;6915;48.296;8.874;2023-01-29T18:38:12;15.60;;;11.07;;
13685;SDS011;6915;48.296;8.874;2023-01-29T18:40:41;14.47;;;10.67;;
13685;SDS011;6915;48.296;8.874;2023-01-29T18:43:13;16.20;;;11.47;;
13685;SDS011;6915;48.296;8.874;2023-01-29T18:45:44;18.40;;;11.80;;
13685;SDS011;6915;48.296;8.874;2023-01-29T18:48:13;16.90;;;12.27;;
13685;SDS011;6915;48.296;8.874;2023-01-29T18:50:43;20.63;;;13.30;;
13685;SDS011;6915;48.296;8.874;2023-01-29T18:53:12;20.77;;;13.37;;
13685;SDS011;6915;48.296;8.874;2023-01-29T18:55:40;18.50;;;12.83;;
13685;SDS011;6915;48.296;8.874;2023-01-29T18:58:09;17.30;;;12.37;;
13685;SDS011;6915;48.296;8.874;2023-01-29T19:11:06;17.60;;;11.73;;
13685;SDS011;6915;48.296;8.874;2023-01-29T19:13:56;15.93;;;11.87;;
13685;SDS011;6915;48.296;8.874;2023-01-29T19:16:38;17.43;;;11.50;;
13685;SDS011;6915;48.296;8.874;2023-01-29T19:19:08;17.80;;;11.37;;
13685;SDS011;6915;48.296;8.874;2023-01-29T19:21:39;17.83;;;11.57;;
13685;SDS011;6915;48.296;8.874;2023-01-29T19:24:09;18.37;;;11.40;;
13685;SDS011;6915;48.296;8.874;2023-01-29T19:26:42;17.53;;;11.97;;
13685;SDS011;6915;48.296;8.874;2023-01-29T19:29:13;19.20;;;12.37;;
13685;SDS011;6915;48.296;8.874;2023-01-29T19:31:44;17.37;;;12.63;;
13685;SDS011;6915;48.296;8.874;2023-01-29T23:34:57;17.67;;;10.57;;
13685;SDS011;6915;48.296;8.874;2023-01-29T23:37:26;16.87;;;10.40;;
13685;SDS011;6915;48.296;8.874;2023-01-29T23:39:55;15.40;;;10.07;;
13685;SDS011;6915;48.296;8.874;2023-01-29T23:42:24;15.43;;;10.03;;
13685;SDS011;6915;48.296;8.874;2023-01-29T23:44:52;19.20;;;10.57;;
13685;SDS011;6915;48.296;8.874;2023-01-29T23:47:21;16.10;;;9.83;;
13685;SDS011;6915;48.296;8.874;2023-01-29T23:49:50;15.03;;;9.97;;
13685;SDS011;6915;48.296;8.874;2023-01-29T23:52:20;17.03;;;10.37;;
13685;SDS011;6915;48.296;8.874;2023-01-29T23:54:48;17.83;;;10.63;;
13685;SDS011;6915;48.296;8.874;2023-01-29T23:57:17;16.23;;;10.93;;
13685;SDS011;6915;48.296;8.874;2023-01-29T23:59:46;17.73;;;10.80;;
